sensor_id;sensor_type;location;lat;lon;timestamp;P1;durP1;ratioP1;P2;durP2;ratioP2
42488;SDS011;28118;52.388;9.452;2022-10-19T00:02:06;6.60;;;2.75;;
42488;SDS011;28118;52.388;9.452;2022-10-19T00:04:33;7.72;;;5.13;;
42488;SDS011;28118;52.388;9.452;2022-10-19T00:07:00;5.05;;;3.47;;
42488;SDS011;28118;52.388;9.452;2022-10-19T00:09:27;8.32;;;3.25;;
42488;SDS011;28118;52.388;9.452;2022-10-19T00:11:54;6.22;;;3.15;;
42488;SDS011;28118;52.388;9.452;2022-10-19T00:14:21;7.32;;;3.63;;
42488;SDS011;28118;52.388;9.452;2022-10-19T00:16:49;5.10;;;3.78;;
42488;SDS011;28118;52.388;9.452;2022-10-19T00:19:19;5.75;;;4.75;;
42488;SDS011;28118;52.388;9.452;2022-10-19T00:21:47;7.60;;;3.97;;
42488;SDS011;28118;52.388;9.452;2022-10-19T00:24:19;11.77;;;4.15;;
42488;SDS011;28118;52.388;9.452;2022-10-19T00:26:46;11.38;;;4.80;;
42488;SDS011;28118;52.388;9.452;2022-10-19T00:29:13;8.38;;;6.25;;
42488;SDS011;28118;52.388;9.452;2022-10-19T00:31:40;9.80;;;4.22;;
42488;SDS011;28118;52.388;9.452;2022-10-19T00:34:07;13.02;;;3.78;;
42488;SDS011;28118;52.388;9.452;2022-10-19T00:36:35;7.85;;;4.78;;
42488;SDS011;28118;52.388;9.452;2022-10-19T00:39:04;11.02;;;5.78;;
42488;SDS011;28118;52.388;9.452;2022-10-19T00:41:33;13.07;;;4.55;;
42488;SDS011;28118;52.388;9.452;2022-10-19T00:44:05;7.85;;;5.85;;
42488;SDS011;28118;52.388;9.452;2022-10-19T00:46:39;6.22;;;4.47;;
42488;SDS011;28118;52.388;9.452;2022-10-19T00:49:08;9.98;;;5.78;;
42488;SDS011;28118;52.388;9.452;2022-10-19T00:51:42;12.82;;;5.75;;
42488;SDS011;28118;52.388;9.452;2022-10-19T00:54:12;5.47;;;4.75;;
42488;SDS011;28118;52.388;9.452;2022-10-19T00:56:40;7.50;;;5.00;;
42488;SDS011;28118;52.388;9.452;2022-10-19T00:59:10;7.38;;;5.53;;
42488;SDS011;28118;52.388;9.452;2022-10-19T01:01:39;8.05;;;4.82;;
42488;SDS011;28118;52.388;9.452;2022-10-19T01:04:09;8.32;;;4.20;;
42488;SDS011;28118;52.388;9.452;2022-10-19T01:06:37;14.50;;;6.32;;
42488;SDS011;28118;52.388;9.452;2022-10-19T01:09:05;17.45;;;5.82;;
42488;SDS011;28118;52.388;9.452;2022-10-19T01:28:40;11.67;;;8.87;;
42488;SDS011;28118;52.388;9.452;2022-10-19T01:31:37;13.35;;;5.32;;
42488;SDS011;28118;52.388;9.452;2022-10-19T01:37:32;5.72;;;4.15;;
42488;SDS011;28118;52.388;9.452;2022-10-19T01:40:04;4.65;;;3.97;;
42488;SDS011;28118;52.388;9.452;2022-10-19T01:45:30;14.80;;;5.80;;
42488;SDS011;28118;52.388;9.452;2022-10-19T01:48:16;9.68;;;5.00;;
42488;SDS011;28118;52.388;9.452;2022-10-19T01:50:53;10.82;;;5.40;;
42488;SDS011;28118;52.388;9.452;2022-10-19T01:53:25;29.63;;;6.68;;
42488;SDS011;28118;52.388;9.452;2022-10-19T01:55:56;11.85;;;4.80;;
42488;SDS011;28118;52.388;9.452;2022-10-19T01:58:26;13.02;;;5.50;;
42488;SDS011;28118;52.388;9.452;2022-10-19T02:00:57;8.57;;;6.93;;
42488;SDS011;28118;52.388;9.452;2022-10-19T02:03:28;19.40;;;7.30;;
42488;SDS011;28118;52.388;9.452;2022-10-19T02:05:55;9.32;;;5.55;;
42488;SDS011;28118;52.388;9.452;2022-10-19T02:08:26;5.38;;;4.22;;
42488;SDS011;28118;52.388;9.452;2022-10-19T02:10:57;6.32;;;5.05;;
42488;SDS011;28118;52.388;9.452;2022-10-19T02:13:24;11.18;;;5.10;;
42488;SDS011;28118;52.388;9.452;2022-10-19T02:15:53;7.85;;;5.65;;
42488;SDS011;28118;52.388;9.452;2022-10-19T02:18:24;9.32;;;5.70;;
42488;SDS011;28118;52.388;9.452;2022-10-19T02:20:55;12.93;;;5.47;;
42488;SDS011;28118;52.388;9.452;2022-10-19T02:23:23;7.45;;;4.40;;
42488;SDS011;28118;52.388;9.452;2022-10-19T02:25:51;15.98;;;6.88;;
42488;SDS011;28118;52.388;9.452;2022-10-19T02:28:19;14.82;;;6.45;;
42488;SDS011;28118;52.388;9.452;2022-10-19T02:30:46;10.95;;;5.10;;
42488;SDS011;28118;52.388;9.452;2022-10-19T02:33:13;5.55;;;4.93;;
42488;SDS011;28118;52.388;9.452;2022-10-19T02:35:40;7.70;;;5.93;;
42488;SDS011;28118;52.388;9.452;2022-10-19T02:38:08;7.65;;;4.90;;
42488;SDS011;28118;52.388;9.452;2022-10-19T02:40:38;7.95;;;5.78;;
42488;SDS011;28118;52.388;9.452;2022-10-19T02:43:13;4.30;;;3.67;;
42488;SDS011;28118;52.388;9.452;2022-10-19T02:45:47;8.57;;;4.45;;
42488;SDS011;28118;52.388;9.452;2022-10-19T02:48:20;4.88;;;4.47;;
42488;SDS011;28118;52.388;9.452;2022-10-19T02:50:49;5.57;;;4.00;;
42488;SDS011;28118;52.388;9.452;2022-10-19T02:53:17;5.03;;;3.20;;
42488;SDS011;28118;52.388;9.452;2022-10-19T02:55:44;10.88;;;5.00;;
42488;SDS011;28118;52.388;9.452;2022-10-19T02:58:14;15.80;;;3.75;;
42488;SDS011;28118;52.388;9.452;2022-10-19T03:00:40;11.52;;;4.35;;
42488;SDS011;28118;52.388;9.452;2022-10-19T03:03:08;6.63;;;4.05;;
42488;SDS011;28118;52.388;9.452;2022-10-19T03:05:35;4.10;;;3.80;;
42488;SDS011;28118;52.388;9.452;2022-10-19T03:08:01;8.38;;;3.95;;
42488;SDS011;28118;52.388;9.452;2022-10-19T03:10:28;4.72;;;3.50;;
42488;SDS011;28118;52.388;9.452;2022-10-19T03:12:58;5.40;;;4.22;;
42488;SDS011;28118;52.388;9.452;2022-10-19T03:15:24;12.32;;;4.70;;
42488;SDS011;28118;52.388;9.452;2022-10-19T03:17:54;6.15;;;4.50;;
42488;SDS011;28118;52.388;9.452;2022-10-19T03:20:21;11.38;;;3.75;;
42488;SDS011;28118;52.388;9.452;2022-10-19T03:22:52;7.38;;;4.75;;
42488;SDS011;28118;52.388;9.452;2022-10-19T03:25:23;6.00;;;5.27;;
42488;SDS011;28118;52.388;9.452;2022-10-19T03:27:50;6.25;;;3.80;;
42488;SDS011;28118;52.388;9.452;2022-10-19T03:30:16;9.70;;;5.90;;
42488;SDS011;28118;52.388;9.452;2022-10-19T03:32:43;12.32;;;4.97;;
42488;SDS011;28118;52.388;9.452;2022-10-19T03:35:10;12.55;;;5.20;;
42488;SDS011;28118;52.388;9.452;2022-10-19T03:37:36;5.68;;;3.60;;
42488;SDS011;28118;52.388;9.452;2022-10-19T03:40:03;11.60;;;7.45;;
42488;SDS011;28118;52.388;9.452;2022-10-19T03:42:30;8.38;;;5.57;;
42488;SDS011;28118;52.388;9.452;2022-10-19T03:44:56;9.88;;;4.43;;
42488;SDS011;28118;52.388;9.452;2022-10-19T03:47:23;12.85;;;7.43;;
42488;SDS011;28118;52.388;9.452;2022-10-19T03:49:50;7.10;;;5.05;;
42488;SDS011;28118;52.388;9.452;2022-10-19T03:52:17;5.53;;;4.95;;
42488;SDS011;28118;52.388;9.452;2022-10-19T03:54:44;9.05;;;5.70;;
42488;SDS011;28118;52.388;9.452;2022-10-19T03:57:14;5.53;;;3.53;;
42488;SDS011;28118;52.388;9.452;2022-10-19T03:59:40;6.40;;;5.68;;
42488;SDS011;28118;52.388;9.452;2022-10-19T04:02:07;15.40;;;5.20;;
42488;SDS011;28118;52.388;9.452;2022-10-19T04:04:34;6.90;;;4.88;;
42488;SDS011;28118;52.388;9.452;2022-10-19T04:07:00;9.98;;;7.82;;
42488;SDS011;28118;52.388;9.452;2022-10-19T04:09:27;18.00;;;5.57;;
42488;SDS011;28118;52.388;9.452;2022-10-19T04:11:53;10.10;;;5.00;;
42488;SDS011;28118;52.388;9.452;2022-10-19T04:14:20;23.02;;;5.80;;
42488;SDS011;28118;52.388;9.452;2022-10-19T04:16:59;8.90;;;5.32;;
42488;SDS011;28118;52.388;9.452;2022-10-19T04:19:29;11.38;;;6.45;;
42488;SDS011;28118;52.388;9.452;2022-10-19T04:21:56;9.68;;;4.57;;
42488;SDS011;28118;52.388;9.452;2022-10-19T04:24:23;11.15;;;6.32;;
42488;SDS011;28118;52.388;9.452;2022-10-19T04:26:51;12.52;;;6.15;;
42488;SDS011;28118;52.388;9.452;2022-10-19T04:29:19;14.18;;;6.97;;
42488;SDS011;28118;52.388;9.452;2022-10-19T04:31:54;5.90;;;4.55;;
42488;SDS011;28118;52.388;9.452;2022-10-19T04:34:21;7.53;;;5.88;;
42488;SDS011;28118;52.388;9.452;2022-10-19T04:36:47;7.53;;;5.05;;
42488;SDS011;28118;52.388;9.452;2022-10-19T04:39:14;10.65;;;7.15;;
42488;SDS011;28118;52.388;9.452;2022-10-19T04:41:41;10.75;;;5.35;;
42488;SDS011;28118;52.388;9.452;2022-10-19T04:44:08;9.60;;;4.88;;
42488;SDS011;28118;52.388;9.452;2022-10-19T04:46:34;17.65;;;4.68;;
42488;SDS011;28118;52.388;9.452;2022-10-19T04:49:02;9.05;;;4.80;;
42488;SDS011;28118;52.388;9.452;2022-10-19T04:51:31;5.60;;;5.20;;
42488;SDS011;28118;52.388;9.452;2022-10-19T04:53:57;11.65;;;5.50;;
42488;SDS011;28118;52.388;9.452;2022-10-19T04:56:25;7.53;;;4.90;;
42488;SDS011;28118;52.388;9.452;2022-10-19T04:58:53;5.68;;;5.18;;
42488;SDS011;28118;52.388;9.452;2022-10-19T05:01:22;8.48;;;6.35;;
42488;SDS011;28118;52.388;9.452;2022-10-19T05:03:54;4.97;;;4.47;;
42488;SDS011;28118;52.388;9.452;2022-10-19T05:06:26;8.00;;;5.88;;
42488;SDS011;28118;52.388;9.452;2022-10-19T05:08:53;7.05;;;6.45;;
42488;SDS011;28118;52.388;9.452;2022-10-19T05:11:20;10.77;;;6.82;;
42488;SDS011;28118;52.388;9.452;2022-10-19T05:13:47;7.05;;;5.63;;
42488;SDS011;28118;52.388;9.452;2022-10-19T05:16:15;3.83;;;3.53;;
42488;SDS011;28118;52.388;9.452;2022-10-19T05:18:47;8.45;;;4.70;;
42488;SDS011;28118;52.388;9.452;2022-10-19T05:21:15;11.45;;;6.82;;
42488;SDS011;28118;52.388;9.452;2022-10-19T05:23:42;15.68;;;6.35;;
42488;SDS011;28118;52.388;9.452;2022-10-19T05:26:14;7.32;;;4.18;;
42488;SDS011;28118;52.388;9.452;2022-10-19T05:28:46;5.05;;;4.50;;
42488;SDS011;28118;52.388;9.452;2022-10-19T05:31:14;5.68;;;4.32;;
42488;SDS011;28118;52.388;9.452;2022-10-19T05:33:42;8.15;;;5.78;;
42488;SDS011;28118;52.388;9.452;2022-10-19T05:36:19;15.75;;;5.25;;
42488;SDS011;28118;52.388;9.452;2022-10-19T05:38:53;6.40;;;5.00;;
42488;SDS011;28118;52.388;9.452;2022-10-19T05:41:21;9.15;;;5.82;;
42488;SDS011;28118;52.388;9.452;2022-10-19T05:43:56;7.15;;;6.30;;
42488;SDS011;28118;52.388;9.452;2022-10-19T05:46:24;17.08;;;5.45;;
42488;SDS011;28118;52.388;9.452;2022-10-19T05:48:53;11.30;;;5.93;;
42488;SDS011;28118;52.388;9.452;2022-10-19T05:51:21;9.82;;;6.53;;
42488;SDS011;28118;52.388;9.452;2022-10-19T05:53:49;11.07;;;6.15;;
42488;SDS011;28118;52.388;9.452;2022-10-19T05:56:18;10.50;;;6.45;;
42488;SDS011;28118;52.388;9.452;2022-10-19T05:58:49;7.03;;;5.93;;
42488;SDS011;28118;52.388;9.452;2022-10-19T06:01:18;9.80;;;6.63;;
42488;SDS011;28118;52.388;9.452;2022-10-19T06:03:45;6.25;;;5.28;;
42488;SDS011;28118;52.388;9.452;2022-10-19T06:06:15;7.43;;;5.57;;
42488;SDS011;28118;52.388;9.452;2022-10-19T06:08:42;8.48;;;5.68;;
42488;SDS011;28118;52.388;9.452;2022-10-19T06:11:11;8.35;;;6.45;;
42488;SDS011;28118;52.388;9.452;2022-10-19T06:13:43;9.60;;;5.88;;
42488;SDS011;28118;52.388;9.452;2022-10-19T06:16:11;18.02;;;5.20;;
42488;SDS011;28118;52.388;9.452;2022-10-19T06:18:39;8.20;;;5.28;;
42488;SDS011;28118;52.388;9.452;2022-10-19T06:21:09;5.50;;;4.38;;
42488;SDS011;28118;52.388;9.452;2022-10-19T06:23:37;5.47;;;4.35;;
42488;SDS011;28118;52.388;9.452;2022-10-19T06:26:06;8.23;;;5.47;;
42488;SDS011;28118;52.388;9.452;2022-10-19T06:28:34;5.82;;;5.28;;
42488;SDS011;28118;52.388;9.452;2022-10-19T06:31:02;7.82;;;4.82;;
42488;SDS011;28118;52.388;9.452;2022-10-19T06:36:05;9.73;;;6.72;;
42488;SDS011;28118;52.388;9.452;2022-10-19T06:38:36;10.90;;;7.20;;
42488;SDS011;28118;52.388;9.452;2022-10-19T06:41:04;16.58;;;6.40;;
42488;SDS011;28118;52.388;9.452;2022-10-19T06:43:31;12.70;;;6.03;;
42488;SDS011;28118;52.388;9.452;2022-10-19T06:45:58;6.10;;;5.55;;
42488;SDS011;28118;52.388;9.452;2022-10-19T06:48:28;9.20;;;5.40;;
42488;SDS011;28118;52.388;9.452;2022-10-19T06:50:55;13.45;;;4.70;;
42488;SDS011;28118;52.388;9.452;2022-10-19T06:53:23;5.43;;;4.93;;
42488;SDS011;28118;52.388;9.452;2022-10-19T06:55:49;11.02;;;6.07;;
42488;SDS011;28118;52.388;9.452;2022-10-19T06:58:16;5.80;;;5.07;;
42488;SDS011;28118;52.388;9.452;2022-10-19T07:00:43;12.45;;;5.28;;
42488;SDS011;28118;52.388;9.452;2022-10-19T07:03:10;8.55;;;4.53;;
42488;SDS011;28118;52.388;9.452;2022-10-19T07:05:36;15.40;;;5.28;;
42488;SDS011;28118;52.388;9.452;2022-10-19T07:08:03;9.15;;;5.03;;
42488;SDS011;28118;52.388;9.452;2022-10-19T07:10:30;15.50;;;6.65;;
42488;SDS011;28118;52.388;9.452;2022-10-19T07:12:56;10.48;;;6.28;;
42488;SDS011;28118;52.388;9.452;2022-10-19T07:15:23;15.90;;;4.50;;
42488;SDS011;28118;52.388;9.452;2022-10-19T07:17:51;4.63;;;4.22;;
42488;SDS011;28118;52.388;9.452;2022-10-19T07:20:18;11.05;;;5.18;;
42488;SDS011;28118;52.388;9.452;2022-10-19T07:22:44;16.02;;;5.18;;
42488;SDS011;28118;52.388;9.452;2022-10-19T07:25:11;5.88;;;3.45;;
42488;SDS011;28118;52.388;9.452;2022-10-19T07:27:37;7.28;;;3.53;;
42488;SDS011;28118;52.388;9.452;2022-10-19T07:30:05;10.00;;;4.57;;
42488;SDS011;28118;52.388;9.452;2022-10-19T07:32:32;7.57;;;5.03;;
42488;SDS011;28118;52.388;9.452;2022-10-19T07:34:59;12.63;;;5.65;;
42488;SDS011;28118;52.388;9.452;2022-10-19T07:37:26;11.18;;;3.05;;
42488;SDS011;28118;52.388;9.452;2022-10-19T07:39:52;10.88;;;4.28;;
42488;SDS011;28118;52.388;9.452;2022-10-19T07:42:19;6.68;;;4.18;;
42488;SDS011;28118;52.388;9.452;2022-10-19T07:44:50;18.07;;;5.30;;
42488;SDS011;28118;52.388;9.452;2022-10-19T07:47:17;13.70;;;5.75;;
42488;SDS011;28118;52.388;9.452;2022-10-19T07:49:44;4.75;;;2.90;;
42488;SDS011;28118;52.388;9.452;2022-10-19T07:52:10;10.45;;;3.67;;
42488;SDS011;28118;52.388;9.452;2022-10-19T07:54:37;11.70;;;3.35;;
42488;SDS011;28118;52.388;9.452;2022-10-19T07:57:04;7.47;;;3.40;;
42488;SDS011;28118;52.388;9.452;2022-10-19T07:59:30;2.15;;;1.23;;
42488;SDS011;28118;52.388;9.452;2022-10-19T08:01:57;3.08;;;2.42;;
42488;SDS011;28118;52.388;9.452;2022-10-19T08:04:27;3.10;;;2.15;;
42488;SDS011;28118;52.388;9.452;2022-10-19T08:07:13;10.65;;;2.63;;
42488;SDS011;28118;52.388;9.452;2022-10-19T08:09:40;12.48;;;3.50;;
42488;SDS011;28118;52.388;9.452;2022-10-19T08:12:18;3.53;;;1.85;;
42488;SDS011;28118;52.388;9.452;2022-10-19T08:14:45;11.13;;;3.70;;
42488;SDS011;28118;52.388;9.452;2022-10-19T08:17:13;6.47;;;2.55;;
42488;SDS011;28118;52.388;9.452;2022-10-19T08:19:43;4.88;;;2.83;;
42488;SDS011;28118;52.388;9.452;2022-10-19T08:22:10;12.48;;;2.72;;
42488;SDS011;28118;52.388;9.452;2022-10-19T08:24:37;4.72;;;1.85;;
42488;SDS011;28118;52.388;9.452;2022-10-19T08:27:04;4.28;;;3.25;;
42488;SDS011;28118;52.388;9.452;2022-10-19T08:29:31;8.48;;;2.20;;
42488;SDS011;28118;52.388;9.452;2022-10-19T08:31:57;2.55;;;1.52;;
42488;SDS011;28118;52.388;9.452;2022-10-19T08:34:24;5.68;;;1.92;;
42488;SDS011;28118;52.388;9.452;2022-10-19T08:36:51;3.78;;;2.40;;
42488;SDS011;28118;52.388;9.452;2022-10-19T08:39:18;10.85;;;2.42;;
42488;SDS011;28118;52.388;9.452;2022-10-19T08:50:20;3.50;;;2.22;;
42488;SDS011;28118;52.388;9.452;2022-10-19T08:52:54;8.80;;;2.65;;
42488;SDS011;28118;52.388;9.452;2022-10-19T08:55:40;7.78;;;2.53;;
42488;SDS011;28118;52.388;9.452;2022-10-19T09:01:16;5.82;;;3.00;;
42488;SDS011;28118;52.388;9.452;2022-10-19T09:03:59;7.40;;;2.85;;
42488;SDS011;28118;52.388;9.452;2022-10-19T09:09:25;6.35;;;3.05;;
42488;SDS011;28118;52.388;9.452;2022-10-19T09:11:55;5.95;;;1.65;;
42488;SDS011;28118;52.388;9.452;2022-10-19T09:17:31;15.27;;;2.33;;
42488;SDS011;28118;52.388;9.452;2022-10-19T09:22:49;3.80;;;2.30;;
42488;SDS011;28118;52.388;9.452;2022-10-19T09:25:38;3.90;;;2.50;;
42488;SDS011;28118;52.388;9.452;2022-10-19T09:28:11;4.25;;;2.13;;
42488;SDS011;28118;52.388;9.452;2022-10-19T09:30:42;8.48;;;3.97;;
42488;SDS011;28118;52.388;9.452;2022-10-19T09:33:14;3.90;;;2.25;;
42488;SDS011;28118;52.388;9.452;2022-10-19T09:35:45;8.90;;;2.88;;
42488;SDS011;28118;52.388;9.452;2022-10-19T09:38:36;4.55;;;2.15;;
42488;SDS011;28118;52.388;9.452;2022-10-19T09:41:21;4.18;;;1.98;;
42488;SDS011;28118;52.388;9.452;2022-10-19T09:44:14;7.43;;;2.95;;
42488;SDS011;28118;52.388;9.452;2022-10-19T09:47:19;4.78;;;2.97;;
42488;SDS011;28118;52.388;9.452;2022-10-19T09:50:54;7.57;;;2.97;;
42488;SDS011;28118;52.388;9.452;2022-10-19T09:53:25;3.03;;;2.50;;
42488;SDS011;28118;52.388;9.452;2022-10-19T09:56:02;4.30;;;2.75;;
42488;SDS011;28118;52.388;9.452;2022-10-19T09:58:32;4.93;;;1.83;;
42488;SDS011;28118;52.388;9.452;2022-10-19T10:01:00;7.03;;;2.15;;
42488;SDS011;28118;52.388;9.452;2022-10-19T10:03:32;4.53;;;2.60;;
42488;SDS011;28118;52.388;9.452;2022-10-19T10:06:02;11.43;;;2.25;;
42488;SDS011;28118;52.388;9.452;2022-10-19T10:08:47;2.30;;;2.10;;
42488;SDS011;28118;52.388;9.452;2022-10-19T10:13:55;7.20;;;2.78;;
42488;SDS011;28118;52.388;9.452;2022-10-19T10:16:40;2.85;;;2.13;;
42488;SDS011;28118;52.388;9.452;2022-10-19T10:19:28;5.97;;;1.77;;
42488;SDS011;28118;52.388;9.452;2022-10-19T10:21:57;4.15;;;1.92;;
42488;SDS011;28118;52.388;9.452;2022-10-19T10:24:25;9.32;;;2.38;;
42488;SDS011;28118;52.388;9.452;2022-10-19T10:26:54;3.30;;;2.40;;
42488;SDS011;28118;52.388;9.452;2022-10-19T10:29:24;4.28;;;2.35;;
42488;SDS011;28118;52.388;9.452;2022-10-19T10:31:53;19.85;;;2.53;;
42488;SDS011;28118;52.388;9.452;2022-10-19T10:34:31;8.38;;;2.58;;
42488;SDS011;28118;52.388;9.452;2022-10-19T10:39:50;3.80;;;2.90;;
42488;SDS011;28118;52.388;9.452;2022-10-19T10:42:22;3.17;;;2.72;;
42488;SDS011;28118;52.388;9.452;2022-10-19T10:48:11;13.40;;;3.53;;
42488;SDS011;28118;52.388;9.452;2022-10-19T10:50:39;5.25;;;2.70;;
42488;SDS011;28118;52.388;9.452;2022-10-19T10:53:06;2.13;;;1.88;;
42488;SDS011;28118;52.388;9.452;2022-10-19T10:56:04;3.53;;;3.15;;
42488;SDS011;28118;52.388;9.452;2022-10-19T10:58:49;4.57;;;2.40;;
42488;SDS011;28118;52.388;9.452;2022-10-19T11:01:18;5.78;;;2.83;;
42488;SDS011;28118;52.388;9.452;2022-10-19T11:04:05;7.70;;;2.17;;
42488;SDS011;28118;52.388;9.452;2022-10-19T11:07:00;3.67;;;2.53;;
42488;SDS011;28118;52.388;9.452;2022-10-19T11:09:44;5.72;;;1.95;;
42488;SDS011;28118;52.388;9.452;2022-10-19T11:12:15;7.97;;;2.20;;
42488;SDS011;28118;52.388;9.452;2022-10-19T11:14:45;3.10;;;2.30;;
42488;SDS011;28118;52.388;9.452;2022-10-19T11:19:58;5.07;;;2.17;;
42488;SDS011;28118;52.388;9.452;2022-10-19T11:30:58;4.40;;;2.47;;
42488;SDS011;28118;52.388;9.452;2022-10-19T11:33:41;7.50;;;2.47;;
42488;SDS011;28118;52.388;9.452;2022-10-19T11:39:16;2.33;;;2.03;;
42488;SDS011;28118;52.388;9.452;2022-10-19T11:42:14;3.67;;;2.20;;
42488;SDS011;28118;52.388;9.452;2022-10-19T11:45:09;4.80;;;2.30;;
42488;SDS011;28118;52.388;9.452;2022-10-19T11:47:57;2.90;;;2.60;;
42488;SDS011;28118;52.388;9.452;2022-10-19T11:50:47;2.90;;;1.88;;
42488;SDS011;28118;52.388;9.452;2022-10-19T11:53:53;7.03;;;2.47;;
42488;SDS011;28118;52.388;9.452;2022-10-19T11:56:38;2.72;;;2.28;;
42488;SDS011;28118;52.388;9.452;2022-10-19T12:10:40;3.13;;;1.77;;
42488;SDS011;28118;52.388;9.452;2022-10-19T12:13:13;6.78;;;1.73;;
42488;SDS011;28118;52.388;9.452;2022-10-19T12:15:47;4.88;;;2.00;;
42488;SDS011;28118;52.388;9.452;2022-10-19T12:21:41;5.00;;;2.40;;
42488;SDS011;28118;52.388;9.452;2022-10-19T12:24:14;1.65;;;1.30;;
42488;SDS011;28118;52.388;9.452;2022-10-19T12:26:45;3.50;;;1.85;;
42488;SDS011;28118;52.388;9.452;2022-10-19T12:29:13;5.15;;;1.63;;
42488;SDS011;28118;52.388;9.452;2022-10-19T12:31:44;2.75;;;1.58;;
42488;SDS011;28118;52.388;9.452;2022-10-19T12:34:25;8.95;;;2.78;;
42488;SDS011;28118;52.388;9.452;2022-10-19T12:37:01;4.38;;;1.95;;
42488;SDS011;28118;52.388;9.452;2022-10-19T12:39:33;3.65;;;1.67;;
42488;SDS011;28118;52.388;9.452;2022-10-19T12:45:12;1.92;;;1.52;;
42488;SDS011;28118;52.388;9.452;2022-10-19T12:50:57;1.83;;;1.23;;
42488;SDS011;28118;52.388;9.452;2022-10-19T12:55:57;7.07;;;2.67;;
42488;SDS011;28118;52.388;9.452;2022-10-19T12:58:33;1.73;;;1.55;;
42488;SDS011;28118;52.388;9.452;2022-10-19T13:01:15;4.28;;;2.38;;
42488;SDS011;28118;52.388;9.452;2022-10-19T13:03:43;8.35;;;4.40;;
42488;SDS011;28118;52.388;9.452;2022-10-19T13:06:33;10.10;;;3.25;;
42488;SDS011;28118;52.388;9.452;2022-10-19T13:09:01;10.43;;;4.68;;
42488;SDS011;28118;52.388;9.452;2022-10-19T13:11:31;3.15;;;2.60;;
42488;SDS011;28118;52.388;9.452;2022-10-19T13:21:48;3.83;;;2.92;;
42488;SDS011;28118;52.388;9.452;2022-10-19T13:27:37;6.68;;;2.65;;
42488;SDS011;28118;52.388;9.452;2022-10-19T13:29:49;5.45;;;2.47;;
42488;SDS011;28118;52.388;9.452;2022-10-19T13:43:19;8.75;;;2.65;;
42488;SDS011;28118;52.388;9.452;2022-10-19T13:48:37;2.03;;;1.70;;
42488;SDS011;28118;52.388;9.452;2022-10-19T13:51:30;6.65;;;2.92;;
42488;SDS011;28118;52.388;9.452;2022-10-19T13:54:17;8.18;;;2.92;;
42488;SDS011;28118;52.388;9.452;2022-10-19T14:08:26;5.80;;;3.30;;
42488;SDS011;28118;52.388;9.452;2022-10-19T14:11:03;4.32;;;3.13;;
42488;SDS011;28118;52.388;9.452;2022-10-19T14:13:36;3.58;;;1.85;;
42488;SDS011;28118;52.388;9.452;2022-10-19T14:16:03;3.03;;;2.35;;
42488;SDS011;28118;52.388;9.452;2022-10-19T14:18:31;3.00;;;2.45;;
42488;SDS011;28118;52.388;9.452;2022-10-19T14:21:06;5.25;;;2.60;;
42488;SDS011;28118;52.388;9.452;2022-10-19T14:23:35;3.30;;;1.90;;
42488;SDS011;28118;52.388;9.452;2022-10-19T14:26:11;6.10;;;2.72;;
42488;SDS011;28118;52.388;9.452;2022-10-19T14:28:41;2.65;;;2.10;;
42488;SDS011;28118;52.388;9.452;2022-10-19T14:31:09;6.60;;;2.53;;
42488;SDS011;28118;52.388;9.452;2022-10-19T14:33:45;3.33;;;2.72;;
42488;SDS011;28118;52.388;9.452;2022-10-19T14:36:20;8.93;;;7.68;;
42488;SDS011;28118;52.388;9.452;2022-10-19T14:38:48;3.30;;;2.97;;
42488;SDS011;28118;52.388;9.452;2022-10-19T14:41:28;2.42;;;1.80;;
42488;SDS011;28118;52.388;9.452;2022-10-19T14:43:58;4.00;;;1.75;;
42488;SDS011;28118;52.388;9.452;2022-10-19T14:46:27;3.55;;;3.08;;
42488;SDS011;28118;52.388;9.452;2022-10-19T14:49:00;3.58;;;3.08;;
42488;SDS011;28118;52.388;9.452;2022-10-19T14:51:32;6.57;;;2.63;;
42488;SDS011;28118;52.388;9.452;2022-10-19T14:54:31;3.40;;;2.17;;
42488;SDS011;28118;52.388;9.452;2022-10-19T14:57:12;3.78;;;2.72;;
42488;SDS011;28118;52.388;9.452;2022-10-19T14:59:55;4.30;;;2.13;;
42488;SDS011;28118;52.388;9.452;2022-10-19T15:02:38;5.68;;;2.45;;
42488;SDS011;28118;52.388;9.452;2022-10-19T15:05:21;6.05;;;3.30;;
42488;SDS011;28118;52.388;9.452;2022-10-19T15:07:50;2.67;;;2.47;;
42488;SDS011;28118;52.388;9.452;2022-10-19T15:10:25;6.28;;;2.90;;
42488;SDS011;28118;52.388;9.452;2022-10-19T15:13:06;5.30;;;3.63;;
42488;SDS011;28118;52.388;9.452;2022-10-19T15:15:40;3.42;;;2.83;;
42488;SDS011;28118;52.388;9.452;2022-10-19T15:18:12;3.28;;;2.83;;
42488;SDS011;28118;52.388;9.452;2022-10-19T15:21:03;9.23;;;2.95;;
42488;SDS011;28118;52.388;9.452;2022-10-19T15:23:45;7.50;;;3.42;;
42488;SDS011;28118;52.388;9.452;2022-10-19T15:26:18;5.03;;;3.00;;
42488;SDS011;28118;52.388;9.452;2022-10-19T15:28:52;4.70;;;2.97;;
42488;SDS011;28118;52.388;9.452;2022-10-19T15:31:23;4.80;;;3.22;;
42488;SDS011;28118;52.388;9.452;2022-10-19T15:33:52;6.60;;;3.63;;
42488;SDS011;28118;52.388;9.452;2022-10-19T15:36:26;3.22;;;2.88;;
42488;SDS011;28118;52.388;9.452;2022-10-19T15:39:07;6.05;;;3.63;;
42488;SDS011;28118;52.388;9.452;2022-10-19T15:52:18;5.68;;;3.70;;
42488;SDS011;28118;52.388;9.452;2022-10-19T15:54:46;4.22;;;3.80;;
42488;SDS011;28118;52.388;9.452;2022-10-19T15:59:49;4.07;;;3.63;;
42488;SDS011;28118;52.388;9.452;2022-10-19T16:02:16;8.80;;;3.92;;
42488;SDS011;28118;52.388;9.452;2022-10-19T16:04:42;12.00;;;5.07;;
42488;SDS011;28118;52.388;9.452;2022-10-19T16:07:12;9.73;;;5.63;;
42488;SDS011;28118;52.388;9.452;2022-10-19T16:09:43;7.45;;;5.25;;
42488;SDS011;28118;52.388;9.452;2022-10-19T16:12:09;7.53;;;5.95;;
42488;SDS011;28118;52.388;9.452;2022-10-19T16:14:36;6.70;;;5.82;;
42488;SDS011;28118;52.388;9.452;2022-10-19T16:17:03;7.18;;;4.18;;
42488;SDS011;28118;52.388;9.452;2022-10-19T16:19:30;7.93;;;4.47;;
42488;SDS011;28118;52.388;9.452;2022-10-19T16:21:56;7.38;;;6.45;;
42488;SDS011;28118;52.388;9.452;2022-10-19T16:24:23;8.77;;;6.82;;
42488;SDS011;28118;52.388;9.452;2022-10-19T16:26:50;11.27;;;6.78;;
42488;SDS011;28118;52.388;9.452;2022-10-19T16:29:16;5.43;;;4.93;;
42488;SDS011;28118;52.388;9.452;2022-10-19T16:31:43;10.85;;;7.25;;
42488;SDS011;28118;52.388;9.452;2022-10-19T16:34:09;13.07;;;5.80;;
42488;SDS011;28118;52.388;9.452;2022-10-19T16:36:36;5.72;;;4.95;;
42488;SDS011;28118;52.388;9.452;2022-10-19T16:39:03;5.78;;;5.22;;
42488;SDS011;28118;52.388;9.452;2022-10-19T16:41:30;7.55;;;5.30;;
42488;SDS011;28118;52.388;9.452;2022-10-19T16:43:57;6.38;;;5.20;;
42488;SDS011;28118;52.388;9.452;2022-10-19T16:46:24;20.88;;;7.07;;
42488;SDS011;28118;52.388;9.452;2022-10-19T16:48:51;5.40;;;4.90;;
42488;SDS011;28118;52.388;9.452;2022-10-19T16:51:23;6.20;;;5.70;;
42488;SDS011;28118;52.388;9.452;2022-10-19T16:53:51;14.80;;;5.50;;
42488;SDS011;28118;52.388;9.452;2022-10-19T16:56:20;8.18;;;5.55;;
42488;SDS011;28118;52.388;9.452;2022-10-19T16:58:47;9.13;;;5.82;;
42488;SDS011;28118;52.388;9.452;2022-10-19T17:01:15;20.15;;;8.40;;
42488;SDS011;28118;52.388;9.452;2022-10-19T17:03:43;9.20;;;8.32;;
42488;SDS011;28118;52.388;9.452;2022-10-19T17:06:11;10.05;;;8.50;;
42488;SDS011;28118;52.388;9.452;2022-10-19T17:08:39;12.93;;;9.25;;
42488;SDS011;28118;52.388;9.452;2022-10-19T17:11:27;7.05;;;6.45;;
42488;SDS011;28118;52.388;9.452;2022-10-19T17:13:57;6.90;;;6.22;;
42488;SDS011;28118;52.388;9.452;2022-10-19T17:16:30;10.82;;;7.05;;
42488;SDS011;28118;52.388;9.452;2022-10-19T17:18:58;7.10;;;6.45;;
42488;SDS011;28118;52.388;9.452;2022-10-19T17:21:27;11.25;;;6.95;;
42488;SDS011;28118;52.388;9.452;2022-10-19T17:23:56;9.60;;;6.60;;
42488;SDS011;28118;52.388;9.452;2022-10-19T17:26:31;20.70;;;7.85;;
42488;SDS011;28118;52.388;9.452;2022-10-19T17:29:00;10.10;;;6.40;;
42488;SDS011;28118;52.388;9.452;2022-10-19T17:31:26;8.27;;;6.72;;